Ladysmith, Canada
Current Conditions -  °F | °C
As of 9:00 PM on Tuesday 21 Oct 2014 (Local Time) from CYCD Reporting Station
Rain Showers Rain Showers  
Wind Chill: 55°   Ceiling: 2000
Heat Index: 55°   Visibility: 8mi
Dew Point: 52°   Wind: 14mph
Humidity: 88%   Direction: 130°SE
Pressure: 29.65"   Gusts: 26mph
Location:  48.98°N, 123.82°W
Report Text: CYCD 220400Z 13012G23KT 8SM -SHRA FEW006 BKN020TCU OVC040 13/11 A2965 RMK SF1TCU4SC3 LAST OBS/NEXT 221300 UTC SLP039 DENSITY ALT 100FT
Loading
Personal Weather Stations






























Interactive Weather Map
Tropical Storm Tracking
New forecast layout! Learn more

10-Day Weather Forecast

Advertisements
Track Severe Weather on mobile